createdAt,value
2022-12-19T00:03:06.191Z,81028.47
2022-12-19T00:10:08.916Z,80999.81
2022-12-19T00:17:10.868Z,80995.72
2022-12-19T00:24:21.271Z,80979.38
2022-12-19T00:31:24.193Z,80983.47
2022-12-19T00:38:26.549Z,81010.06
2022-12-19T00:45:28.976Z,81003.91
2022-12-19T00:52:32.452Z,81010.06
2022-12-19T00:59:35.707Z,81030.53
2022-12-19T01:06:37.795Z,81030.53
2022-12-19T01:13:41.043Z,81022.34
2022-12-19T01:20:47.624Z,80987.56
2022-12-19T01:27:49.541Z,80983.47
2022-12-19T01:34:51.467Z,80991.66
2022-12-19T01:41:57.323Z,80975.28
2022-12-19T01:48:59.696Z,80987.56
2022-12-19T01:56:09.265Z,80987.56
2022-12-19T02:03:23.183Z,80991.66
2022-12-19T02:10:25.307Z,81028.47
2022-12-19T02:17:54.852Z,81044.84
2022-12-19T02:24:56.721Z,81034.63
2022-12-19T02:32:09.741Z,81010.06
2022-12-19T02:39:20.072Z,80987.56
2022-12-19T02:46:23.341Z,80975.28
2022-12-19T02:53:25.553Z,81001.88
2022-12-19T03:00:28.938Z,80995.72
2022-12-19T03:07:34.747Z,80979.38
2022-12-19T03:14:37.304Z,80997.78
2022-12-19T03:21:44.202Z,80995.72
2022-12-19T03:28:55.532Z,80979.38
2022-12-19T03:35:58.728Z,80995.72
2022-12-19T03:43:11.325Z,80995.72
2022-12-19T03:50:13.696Z,81014.16
2022-12-19T03:57:20.353Z,81020.28
2022-12-19T04:04:24.098Z,81008.00
2022-12-19T04:11:28.136Z,80997.78
2022-12-19T04:18:31.077Z,81020.28
2022-12-19T04:25:39.800Z,81016.19
2022-12-19T04:32:45.584Z,81028.47
2022-12-19T04:39:47.670Z,81046.88
2022-12-19T04:46:49.914Z,81040.75
2022-12-19T04:53:52.146Z,81061.22
2022-12-19T05:00:54.372Z,81061.22
2022-12-19T05:07:56.483Z,81065.31
2022-12-19T05:14:58.447Z,81065.31
2022-12-19T05:22:00.406Z,81081.66
2022-12-19T05:29:02.852Z,81077.56
2022-12-19T05:36:05.691Z,81059.16
2022-12-19T05:43:11.009Z,81069.41
2022-12-19T05:50:17.823Z,81059.16
2022-12-19T05:57:19.821Z,81067.34
2022-12-19T06:04:21.848Z,81065.31
2022-12-19T06:11:24.251Z,81077.56
2022-12-19T06:18:26.766Z,81083.72
2022-12-19T06:25:28.776Z,81065.31
2022-12-19T06:32:36.218Z,81061.22
2022-12-19T06:39:39.683Z,81059.16
2022-12-19T06:46:42.349Z,81073.47
2022-12-19T06:53:44.793Z,81085.75
2022-12-19T07:00:47.170Z,81100.09
2022-12-19T07:07:50.543Z,81096.00
2022-12-19T07:14:53.689Z,81116.44
2022-12-19T07:21:57.425Z,81122.59
2022-12-19T07:29:00.363Z,81114.41
2022-12-19T07:36:02.481Z,81102.13
2022-12-19T07:43:07.122Z,81098.03
2022-12-19T07:50:10.339Z,81077.56
2022-12-19T07:57:12.928Z,81069.41
2022-12-19T08:04:15.393Z,81057.13
2022-12-19T08:11:26.665Z,81046.88
2022-12-19T08:18:30.359Z,81036.66
2022-12-19T08:25:32.805Z,81016.19
2022-12-19T08:32:35.164Z,81010.06
2022-12-19T08:39:39.300Z,80995.72
2022-12-19T08:46:46.526Z,80971.19
2022-12-19T08:53:51.869Z,80963.00
2022-12-19T09:00:57.559Z,80932.31
2022-12-19T09:08:01.254Z,80913.91
2022-12-19T09:15:03.464Z,80897.53
2022-12-19T09:22:05.400Z,80868.88
2022-12-19T09:29:12.551Z,80844.34
2022-12-19T09:36:24.859Z,80811.59
2022-12-19T09:43:51.381Z,80803.41
2022-12-19T09:51:10.174Z,80766.59
2022-12-19T09:58:14.744Z,80754.31
2022-12-19T10:05:30.535Z,80733.84
2022-12-19T10:12:58.516Z,80717.47
2022-12-19T10:20:09.985Z,80684.75
2022-12-19T10:27:21.114Z,80660.19
2022-12-19T10:34:25.850Z,80637.69
2022-12-19T10:41:32.422Z,80619.28
2022-12-19T10:48:35.166Z,80602.91
2022-12-19T10:55:51.543Z,80566.09
2022-12-19T11:03:19.262Z,80525.19
2022-12-19T11:11:24.735Z,80496.53
2022-12-19T11:24:18.017Z,80476.06
2022-12-19T11:30:05.577Z,80463.81
2022-12-19T11:33:18.488Z,80461.75
2022-12-19T11:40:39.408Z,80451.53
2022-12-19T11:48:19.056Z,80422.88
2022-12-19T11:55:26.431Z,80392.19
2022-12-19T12:02:34.733Z,80371.75
2022-12-19T12:13:04.195Z,80371.75
2022-12-19T12:27:47.329Z,80375.84
2022-12-19T12:31:46.813Z,80381.97
2022-12-19T12:35:40.507Z,80398.34
2022-12-19T12:40:03.367Z,80384.03
2022-12-19T12:47:28.319Z,80367.66
2022-12-19T12:54:35.308Z,80373.78
2022-12-19T13:01:40.589Z,80357.44
2022-12-19T13:08:47.974Z,80371.75
2022-12-19T13:15:50.378Z,80365.59
2022-12-19T13:22:58.555Z,80371.75
2022-12-19T13:30:00.756Z,80396.28
2022-12-19T13:39:51.849Z,80412.66
2022-12-19T13:44:50.208Z,80424.94
2022-12-19T13:51:57.596Z,80455.63
2022-12-19T13:59:04.384Z,80472.00
2022-12-19T14:06:19.655Z,80472.00
2022-12-19T14:14:00.888Z,80472.00
2022-12-19T14:22:06.855Z,80469.94
2022-12-19T14:28:47.571Z,80478.13
2022-12-19T14:36:12.110Z,80472.00
2022-12-19T14:44:00.463Z,80492.44
2022-12-19T14:54:33.974Z,80496.53
2022-12-19T14:58:55.831Z,80500.63
2022-12-19T15:07:05.638Z,80498.59
2022-12-19T15:14:50.794Z,80492.44
2022-12-19T15:21:20.840Z,80494.50
2022-12-19T15:28:31.188Z,80461.75
2022-12-19T15:35:38.750Z,80451.53
2022-12-19T15:42:44.727Z,80435.16
2022-12-19T15:49:49.699Z,80426.97
2022-12-19T15:56:55.949Z,80431.06
2022-12-19T16:03:59.646Z,80420.84
2022-12-19T16:11:02.465Z,80406.53
2022-12-19T16:18:04.617Z,80396.28
2022-12-19T16:25:07.861Z,80373.78
2022-12-19T16:32:13.340Z,80357.44
2022-12-19T16:39:16.041Z,80328.78
2022-12-19T16:46:20.708Z,80312.41
2022-12-19T16:53:22.913Z,80302.19
2022-12-19T17:00:25.528Z,80289.91
2022-12-19T17:07:29.193Z,80277.66
2022-12-19T17:14:32.360Z,80255.13
2022-12-19T17:21:34.360Z,80265.38
2022-12-19T17:28:36.917Z,80259.22
2022-12-19T17:35:39.529Z,80242.88
2022-12-19T17:42:41.514Z,80232.63
2022-12-19T17:49:43.838Z,80206.03
2022-12-19T17:56:45.933Z,80193.78
2022-12-19T18:03:49.309Z,80189.69
2022-12-19T18:10:52.679Z,80183.53
2022-12-19T18:17:55.461Z,80169.22
2022-12-19T18:24:57.549Z,80163.09
2022-12-19T18:32:00.093Z,80140.59
2022-12-19T18:39:03.361Z,80126.25
2022-12-19T18:46:06.956Z,80116.03
2022-12-19T18:53:22.511Z,80099.69
2022-12-19T19:00:27.157Z,80083.31
2022-12-19T19:07:30.776Z,80056.72
2022-12-19T19:14:33.447Z,80050.59
2022-12-19T19:21:36.453Z,80036.25
2022-12-19T19:28:39.712Z,80021.94
2022-12-19T19:35:44.190Z,80001.50
2022-12-19T19:42:46.638Z,79993.31
2022-12-19T19:49:50.227Z,79964.66
2022-12-19T19:56:52.818Z,79948.31
2022-12-19T20:03:55.631Z,79940.13
2022-12-19T20:10:59.003Z,79921.72
2022-12-19T20:18:01.065Z,79901.25
2022-12-19T20:25:03.589Z,79907.41
2022-12-19T20:32:06.488Z,79880.81
2022-12-19T20:39:08.992Z,79862.41
2022-12-19T20:46:13.748Z,79848.06
2022-12-19T20:53:15.695Z,79819.44
2022-12-19T21:00:18.409Z,79801.03
2022-12-19T21:07:20.660Z,79792.84
2022-12-19T21:14:22.681Z,79764.22
2022-12-19T21:21:29.532Z,79727.41
2022-12-19T21:28:34.975Z,79698.75
2022-12-19T21:35:38.461Z,79678.31
2022-12-19T21:42:40.668Z,79664.00
2022-12-19T21:49:42.886Z,79655.81
2022-12-19T21:56:45.096Z,79637.41
2022-12-19T22:03:47.763Z,79616.94
2022-12-19T22:10:50.049Z,79619.00
2022-12-19T22:17:52.026Z,79612.84
2022-12-19T22:24:54.069Z,79586.28
2022-12-19T22:31:56.037Z,79565.81
2022-12-19T22:38:59.373Z,79547.41
2022-12-19T22:46:15.440Z,79524.91
2022-12-19T22:53:19.990Z,79500.38
2022-12-19T23:00:22.544Z,79490.13
2022-12-19T23:07:25.186Z,79477.88
2022-12-19T23:14:27.781Z,79453.31
2022-12-19T23:21:31.041Z,79443.09
2022-12-19T23:28:33.467Z,79422.66
2022-12-19T23:35:35.582Z,79400.16
2022-12-19T23:42:38.201Z,79379.69
2022-12-19T23:49:40.512Z,79363.34
2022-12-19T23:56:42.492Z,79346.97
